createdAt,value
2022-11-01T00:00:32.601Z,65.50
2022-11-01T00:03:17.993Z,66.95
2022-11-01T00:06:03.658Z,68.55
2022-11-01T00:08:48.820Z,64.82
2022-11-01T00:11:34.391Z,64.30
2022-11-01T00:14:20.241Z,66.00
2022-11-01T00:17:05.647Z,71.07
2022-11-01T00:19:51.062Z,61.25
2022-11-01T00:22:36.406Z,62.33
2022-11-01T00:25:21.738Z,66.55
2022-11-01T00:28:07.264Z,65.82
2022-11-01T00:30:53.374Z,58.78
2022-11-01T00:33:42.015Z,66.75
2022-11-01T00:36:27.544Z,60.80
2022-11-01T00:39:14.390Z,61.20
2022-11-01T00:41:59.661Z,62.30
2022-11-01T00:44:58.200Z,66.43
2022-11-01T00:47:46.116Z,59.63
2022-11-01T00:50:31.327Z,61.05
2022-11-01T00:53:16.688Z,61.70
2022-11-01T00:56:04.160Z,65.70
2022-11-01T00:58:49.303Z,65.95
2022-11-01T01:01:34.788Z,53.65
2022-11-01T01:04:19.973Z,54.92
2022-11-01T01:07:05.485Z,66.90
2022-11-01T01:09:50.745Z,59.90
2022-11-01T01:12:36.250Z,62.75
2022-11-01T01:15:21.548Z,61.63
2022-11-01T01:18:06.925Z,56.13
2022-11-01T01:21:00.125Z,60.67
2022-11-01T01:23:46.776Z,65.68
2022-11-01T01:26:42.462Z,63.72
2022-11-01T01:29:27.779Z,66.57
2022-11-01T01:32:19.025Z,55.38
2022-11-01T01:35:04.974Z,60.60
2022-11-01T01:37:50.085Z,64.85
2022-11-01T01:40:35.745Z,64.38
2022-11-01T01:43:20.827Z,60.35
2022-11-01T01:46:05.992Z,66.43
2022-11-01T01:48:56.506Z,55.25
2022-11-01T01:51:41.933Z,60.10
2022-11-01T01:54:28.310Z,60.40
2022-11-01T01:57:14.014Z,58.03
2022-11-01T01:59:59.708Z,56.15
2022-11-01T02:02:45.373Z,54.45
2022-11-01T02:05:58.002Z,57.15
2022-11-01T02:08:48.305Z,61.28
2022-11-01T02:11:34.022Z,59.45
2022-11-01T02:14:23.222Z,59.65
2022-11-01T02:17:23.693Z,54.60
2022-11-01T02:20:34.281Z,59.92
2022-11-01T02:23:44.373Z,53.60
2022-11-01T02:27:12.333Z,57.60
2022-11-01T02:30:09.820Z,57.92
2022-11-01T02:33:15.373Z,56.05
2022-11-01T02:36:33.316Z,56.85
2022-11-01T02:39:32.685Z,67.18
2022-11-01T02:42:24.591Z,59.28
2022-11-01T02:45:28.834Z,57.47
2022-11-01T02:48:14.179Z,58.60
2022-11-01T02:51:00.307Z,58.33
2022-11-01T02:53:45.816Z,62.25
2022-11-01T02:56:31.046Z,61.47
2022-11-01T02:59:27.931Z,56.17
2022-11-01T03:02:41.570Z,67.57
2022-11-01T03:05:44.912Z,58.90
2022-11-01T03:08:35.413Z,61.47
2022-11-01T03:11:43.999Z,58.33
2022-11-01T03:14:47.409Z,63.25
2022-11-01T03:17:40.742Z,61.40
2022-11-01T03:20:49.662Z,56.97
2022-11-01T03:23:43.309Z,57.47
2022-11-01T03:26:33.748Z,60.47
2022-11-01T03:29:22.990Z,61.35
2022-11-01T03:32:09.509Z,56.15
2022-11-01T03:34:57.481Z,63.85
2022-11-01T03:37:46.100Z,55.35
2022-11-01T03:40:33.099Z,61.60
2022-11-01T03:43:21.048Z,60.45
2022-11-01T03:46:07.893Z,57.38
2022-11-01T03:48:53.257Z,61.92
2022-11-01T03:51:38.714Z,57.20
2022-11-01T03:54:24.026Z,61.90
2022-11-01T03:57:09.205Z,54.83
2022-11-01T03:59:54.489Z,58.95
2022-11-01T04:02:39.935Z,52.85
2022-11-01T04:05:27.686Z,57.08
2022-11-01T04:08:13.257Z,64.82
2022-11-01T04:10:58.649Z,57.25
2022-11-01T04:13:44.051Z,63.55
2022-11-01T04:16:47.792Z,56.90
2022-11-01T04:19:51.314Z,54.13
2022-11-01T04:22:37.131Z,56.28
2022-11-01T04:25:22.506Z,61.30
2022-11-01T04:28:07.636Z,58.92
2022-11-01T04:30:53.481Z,62.42
2022-11-01T04:33:38.662Z,61.80
2022-11-01T04:36:24.393Z,57.42
2022-11-01T04:39:09.984Z,57.67
2022-11-01T04:41:55.396Z,55.38
2022-11-01T04:44:40.788Z,61.00
2022-11-01T04:47:26.191Z,59.63
2022-11-01T04:50:11.540Z,63.20
2022-11-01T04:52:59.342Z,56.03
2022-11-01T04:55:44.825Z,63.22
2022-11-01T04:58:30.337Z,61.13
2022-11-01T05:01:15.576Z,69.57
2022-11-01T05:04:00.807Z,57.67
2022-11-01T05:06:46.209Z,60.10
2022-11-01T05:09:31.683Z,57.45
2022-11-01T05:12:16.666Z,57.92
2022-11-01T05:15:02.115Z,70.80
2022-11-01T05:17:47.341Z,54.17
2022-11-01T05:20:32.659Z,56.97
2022-11-01T05:23:17.899Z,58.95
2022-11-01T05:26:03.214Z,65.20
2022-11-01T05:28:48.645Z,59.22
2022-11-01T05:31:33.997Z,58.55
2022-11-01T05:34:19.687Z,63.05
2022-11-01T05:37:04.855Z,65.65
2022-11-01T05:39:50.286Z,57.65
2022-11-01T05:42:38.474Z,60.03
2022-11-01T05:45:24.270Z,61.15
2022-11-01T05:48:09.365Z,59.38
2022-11-01T05:50:54.790Z,61.90
2022-11-01T05:53:39.985Z,58.70
2022-11-01T05:56:25.003Z,60.28
2022-11-01T05:59:10.056Z,63.15
2022-11-01T06:01:55.561Z,59.25
2022-11-01T06:04:40.856Z,57.40
2022-11-01T06:07:26.991Z,59.67
2022-11-01T06:10:12.093Z,62.45
2022-11-01T06:12:57.657Z,56.17
2022-11-01T06:15:42.675Z,59.83
2022-11-01T06:18:28.304Z,54.42
2022-11-01T06:21:13.331Z,52.88
2022-11-01T06:23:58.789Z,53.25
2022-11-01T06:26:44.261Z,51.78
2022-11-01T06:29:29.617Z,50.42
2022-11-01T06:32:15.066Z,54.30
2022-11-01T06:35:00.452Z,48.60
2022-11-01T06:37:46.706Z,51.55
2022-11-01T06:40:32.788Z,54.00
2022-11-01T06:43:18.232Z,56.55
2022-11-01T06:46:03.915Z,54.22
2022-11-01T06:48:49.092Z,58.45
2022-11-01T06:51:34.457Z,53.30
2022-11-01T06:54:19.580Z,61.40
2022-11-01T06:57:04.813Z,54.33
2022-11-01T06:59:50.305Z,48.95
2022-11-01T07:02:35.948Z,52.47
2022-11-01T07:05:21.280Z,50.78
2022-11-01T07:08:09.038Z,48.38
2022-11-01T07:10:54.408Z,51.42
2022-11-01T07:13:39.907Z,56.75
2022-11-01T07:16:25.721Z,52.75
2022-11-01T07:19:11.161Z,52.50
2022-11-01T07:21:56.517Z,45.97
2022-11-01T07:24:41.810Z,47.40
2022-11-01T07:27:26.947Z,51.28
2022-11-01T07:30:12.683Z,45.90
2022-11-01T07:33:01.074Z,49.67
2022-11-01T07:35:47.943Z,48.72
2022-11-01T07:38:33.078Z,47.67
2022-11-01T07:44:03.889Z,44.60
2022-11-01T07:46:49.171Z,41.75
2022-11-01T07:49:34.384Z,42.40
2022-11-01T07:52:19.372Z,60.85
2022-11-01T07:55:05.288Z,46.67
2022-11-01T07:57:50.772Z,44.85
2022-11-01T08:00:37.106Z,41.67
2022-11-01T08:03:24.935Z,42.45
2022-11-01T08:06:10.277Z,42.78
2022-11-01T08:08:55.580Z,41.88
2022-11-01T08:11:41.272Z,40.30
2022-11-01T08:14:26.604Z,39.13
2022-11-01T08:17:13.104Z,40.95
2022-11-01T08:19:58.711Z,37.15
2022-11-01T08:22:44.071Z,39.90
2022-11-01T08:25:30.638Z,35.45
2022-11-01T08:28:19.318Z,38.45
2022-11-01T08:31:10.276Z,39.30
2022-11-01T08:33:56.272Z,38.53
2022-11-01T08:36:41.639Z,38.05
2022-11-01T08:39:27.134Z,36.78
2022-11-01T08:42:12.482Z,31.17
2022-11-01T08:44:57.608Z,38.53
2022-11-01T08:47:43.202Z,37.67
2022-11-01T08:50:29.232Z,37.38
2022-11-01T08:53:18.370Z,72.13
2022-11-01T08:56:04.049Z,55.55
2022-11-01T08:58:49.484Z,62.15
2022-11-01T09:01:34.990Z,39.55
2022-11-01T09:04:20.274Z,30.05
2022-11-01T09:07:05.467Z,32.35
2022-11-01T09:09:50.745Z,28.50
2022-11-01T09:12:36.698Z,33.67
2022-11-01T09:15:22.186Z,27.48
2022-11-01T09:18:07.628Z,26.98
2022-11-01T09:20:56.531Z,24.40
2022-11-01T09:23:41.699Z,29.88
2022-11-01T09:26:27.261Z,28.55
2022-11-01T09:29:12.406Z,36.85
2022-11-01T09:31:57.978Z,28.08
2022-11-01T09:34:43.149Z,29.75
2022-11-01T09:37:28.654Z,25.30
2022-11-01T09:40:15.280Z,29.70
2022-11-01T09:43:02.111Z,23.60
2022-11-01T09:45:51.299Z,27.27
2022-11-01T09:48:37.368Z,25.25
2022-11-01T09:51:24.472Z,31.00
2022-11-01T09:54:10.490Z,29.83
2022-11-01T09:57:18.795Z,26.92
2022-11-01T10:00:13.487Z,26.20
2022-11-01T10:02:58.775Z,23.70
2022-11-01T10:06:01.994Z,27.75
2022-11-01T10:09:01.425Z,21.10
2022-11-01T10:15:22.555Z,35.33
2022-11-01T10:18:25.364Z,27.35
2022-11-01T10:21:16.450Z,25.45
2022-11-01T10:24:07.188Z,24.02
2022-11-01T10:27:02.974Z,21.45
2022-11-01T10:30:03.605Z,21.48
2022-11-01T10:32:49.358Z,25.40
2022-11-01T10:35:41.719Z,24.48
2022-11-01T10:39:10.708Z,24.77
2022-11-01T10:41:50.631Z,25.55
2022-11-01T10:44:59.501Z,28.00
2022-11-01T10:47:48.274Z,24.75
2022-11-01T10:50:34.105Z,22.80
2022-11-01T10:53:20.460Z,25.88
2022-11-01T10:56:10.028Z,25.23
2022-11-01T10:59:04.472Z,27.02
2022-11-01T11:01:52.926Z,21.73
2022-11-01T11:04:38.543Z,26.63
2022-11-01T11:07:28.176Z,19.17
2022-11-01T11:10:34.953Z,26.05
2022-11-01T11:13:22.758Z,24.17
2022-11-01T11:16:31.114Z,20.02
2022-11-01T11:19:22.431Z,24.35
2022-11-01T11:22:09.208Z,18.02
2022-11-01T11:24:58.835Z,23.63
2022-11-01T11:27:48.037Z,18.55
2022-11-01T11:30:35.295Z,22.15
2022-11-01T11:33:20.925Z,15.73
2022-11-01T11:36:07.197Z,14.88
2022-11-01T11:38:54.982Z,12.88
2022-11-01T11:41:41.838Z,14.32
2022-11-01T11:44:55.722Z,19.08
2022-11-01T11:47:42.048Z,17.27
2022-11-01T11:50:33.133Z,19.88
2022-11-01T11:53:22.854Z,18.98
2022-11-01T11:58:56.005Z,13.93
2022-11-01T12:01:41.606Z,16.13
2022-11-01T12:04:39.448Z,17.90
2022-11-01T12:07:32.238Z,14.68
2022-11-01T12:10:39.159Z,17.77
2022-11-01T12:13:44.338Z,22.80
2022-11-01T12:16:29.776Z,15.43
2022-11-01T12:19:29.949Z,14.38
2022-11-01T12:22:15.729Z,22.00
2022-11-01T12:25:10.611Z,15.90
2022-11-01T12:28:00.909Z,12.82
2022-11-01T12:30:52.239Z,16.85
2022-11-01T12:33:59.307Z,14.30
2022-11-01T12:36:54.651Z,16.85
2022-11-01T12:40:01.839Z,15.00
2022-11-01T12:42:56.344Z,17.02
2022-11-01T12:45:53.254Z,17.10
2022-11-01T12:48:55.884Z,15.13
2022-11-01T12:51:48.868Z,11.68
2022-11-01T12:54:52.842Z,14.65
2022-11-01T12:57:39.866Z,15.75
2022-11-01T13:00:36.139Z,15.65
2022-11-01T13:03:47.766Z,14.90
2022-11-01T13:06:58.330Z,14.43
2022-11-01T13:10:11.202Z,14.25
2022-11-01T13:13:06.093Z,14.23
2022-11-01T13:16:19.426Z,16.20
2022-11-01T13:19:36.957Z,16.75
2022-11-01T13:22:38.146Z,12.43
2022-11-01T13:25:45.116Z,10.90
2022-11-01T13:28:39.005Z,15.40
2022-11-01T13:31:30.593Z,18.13
2022-11-01T13:34:20.886Z,15.95
2022-11-01T13:37:31.154Z,13.70
2022-11-01T13:40:42.632Z,15.23
2022-11-01T13:43:39.780Z,13.60
2022-11-01T13:46:34.754Z,13.55
2022-11-01T13:49:36.699Z,12.60
2022-11-01T13:52:30.447Z,14.18
2022-11-01T13:55:38.952Z,12.98
2022-11-01T13:58:25.944Z,16.58
2022-11-01T14:01:31.872Z,19.00
2022-11-01T14:04:18.776Z,13.60
2022-11-01T14:07:16.097Z,19.17
2022-11-01T14:10:10.886Z,14.77
2022-11-01T14:12:57.251Z,12.27
2022-11-01T14:15:55.048Z,16.20
2022-11-01T14:19:02.694Z,17.42
2022-11-01T14:21:49.364Z,15.02
2022-11-01T14:24:56.656Z,20.70
2022-11-01T14:27:50.368Z,18.60
2022-11-01T14:30:41.917Z,18.80
2022-11-01T14:33:27.416Z,20.95
2022-11-01T14:36:14.470Z,17.73
2022-11-01T14:39:02.841Z,18.60
2022-11-01T14:41:53.829Z,13.05
2022-11-01T14:44:50.569Z,16.05
2022-11-01T14:47:40.790Z,14.70
2022-11-01T14:50:32.453Z,15.73
2022-11-01T14:53:27.812Z,19.88
2022-11-01T14:56:21.691Z,19.00
2022-11-01T14:59:19.602Z,14.45
2022-11-01T15:02:07.144Z,22.50
2022-11-01T15:05:01.746Z,15.38
2022-11-01T15:07:55.539Z,13.45
2022-11-01T15:10:42.427Z,15.88
2022-11-01T15:17:01.710Z,17.42
2022-11-01T15:19:48.221Z,16.02
2022-11-01T15:22:34.101Z,21.88
2022-11-01T15:25:21.962Z,15.40
2022-11-01T15:28:07.552Z,15.20
2022-11-01T15:31:07.845Z,18.45
2022-11-01T15:33:56.726Z,18.48
2022-11-01T15:36:42.572Z,17.98
2022-11-01T15:39:31.637Z,16.17
2022-11-01T15:42:24.793Z,15.55
2022-11-01T15:45:27.972Z,16.85
2022-11-01T15:48:19.295Z,19.90
2022-11-01T15:51:08.891Z,20.95
2022-11-01T15:54:04.172Z,15.10
2022-11-01T15:56:59.101Z,21.70
2022-11-01T16:00:07.932Z,22.98
2022-11-01T16:03:06.930Z,25.92
2022-11-01T16:06:03.054Z,24.27
2022-11-01T16:09:05.051Z,17.35
2022-11-01T16:11:55.785Z,19.58
2022-11-01T16:14:41.703Z,22.48
2022-11-01T16:17:38.576Z,22.75
2022-11-01T16:20:47.073Z,16.95
2022-11-01T16:23:32.696Z,17.52
2022-11-01T16:26:17.829Z,21.73
2022-11-01T16:29:03.424Z,22.60
2022-11-01T16:32:09.465Z,20.50
2022-11-01T16:34:55.593Z,23.75
2022-11-01T16:37:43.789Z,21.55
2022-11-01T16:40:31.139Z,20.50
2022-11-01T16:43:16.380Z,14.52
2022-11-01T16:46:03.439Z,15.43
2022-11-01T16:48:51.868Z,24.45
2022-11-01T16:51:38.184Z,18.23
2022-11-01T16:54:25.517Z,14.98
2022-11-01T16:57:24.711Z,20.27
2022-11-01T17:00:13.637Z,19.92
2022-11-01T17:02:59.459Z,14.97
2022-11-01T17:05:45.242Z,14.23
2022-11-01T17:08:31.893Z,19.25
2022-11-01T17:11:17.131Z,19.48
2022-11-01T17:14:02.648Z,18.50
2022-11-01T17:16:50.467Z,19.15
2022-11-01T17:19:38.904Z,18.77
2022-11-01T17:22:31.924Z,20.73
2022-11-01T17:28:06.017Z,17.88
2022-11-01T17:30:52.251Z,15.43
2022-11-01T17:33:37.494Z,20.15
2022-11-01T17:36:22.597Z,22.83
2022-11-01T17:39:10.653Z,20.73
2022-11-01T17:41:59.193Z,20.45
2022-11-01T17:44:44.661Z,17.60
2022-11-01T17:47:30.136Z,21.45
2022-11-01T17:50:16.351Z,19.45
2022-11-01T17:53:02.200Z,23.63
2022-11-01T17:55:54.979Z,16.25
2022-11-01T17:58:40.086Z,18.10
2022-11-01T18:01:25.582Z,23.73
2022-11-01T18:04:11.668Z,24.17
2022-11-01T18:06:56.767Z,17.25
2022-11-01T18:09:42.007Z,19.15
2022-11-01T18:12:37.497Z,17.55
2022-11-01T18:15:34.319Z,21.80
2022-11-01T18:18:31.738Z,18.90
2022-11-01T18:21:29.627Z,20.20
2022-11-01T18:24:22.602Z,16.88
2022-11-01T18:27:12.719Z,22.52
2022-11-01T18:29:57.947Z,18.13
2022-11-01T18:33:06.082Z,18.67
2022-11-01T18:36:00.509Z,15.93
2022-11-01T18:39:12.930Z,18.02
2022-11-01T18:42:00.541Z,21.90
2022-11-01T18:44:46.276Z,20.13
2022-11-01T18:47:40.893Z,19.40
2022-11-01T18:50:26.675Z,19.15
2022-11-01T18:53:14.594Z,18.75
2022-11-01T18:56:22.258Z,16.98
2022-11-01T18:59:29.176Z,18.13
2022-11-01T19:02:21.745Z,17.27
2022-11-01T19:05:19.594Z,21.42
2022-11-01T19:08:20.518Z,17.83
2022-11-01T19:11:05.890Z,15.98
2022-11-01T19:13:51.213Z,20.17
2022-11-01T19:16:37.859Z,20.77
2022-11-01T19:19:23.402Z,16.75
2022-11-01T19:22:28.333Z,23.05
2022-11-01T19:25:21.887Z,20.10
2022-11-01T19:28:19.780Z,27.92
2022-11-01T19:31:27.030Z,25.67
2022-11-01T19:34:19.831Z,22.65
2022-11-01T19:37:19.768Z,25.90
2022-11-01T19:40:26.565Z,26.92
2022-11-01T19:43:15.641Z,32.25
2022-11-01T19:46:01.413Z,37.60
2022-11-01T19:48:47.656Z,33.13
2022-11-01T19:51:32.817Z,39.00
2022-11-01T19:54:21.171Z,36.80
2022-11-01T19:57:27.762Z,32.97
2022-11-01T20:00:22.211Z,35.42
2022-11-01T20:03:22.559Z,32.80
2022-11-01T20:06:21.185Z,40.95
2022-11-01T20:09:16.364Z,40.20
2022-11-01T20:12:02.285Z,41.22
2022-11-01T20:14:47.612Z,35.45
2022-11-01T20:17:33.425Z,41.80
2022-11-01T20:20:18.928Z,35.20
2022-11-01T20:23:25.210Z,34.38
2022-11-01T20:26:09.757Z,31.05
2022-11-01T20:28:55.866Z,31.70
2022-11-01T20:31:41.032Z,26.60
2022-11-01T20:34:27.237Z,33.42
2022-11-01T20:37:28.128Z,34.55
2022-11-01T20:40:14.240Z,33.78
2022-11-01T20:43:00.143Z,36.13
2022-11-01T20:45:45.322Z,38.20
2022-11-01T20:48:31.175Z,32.42
2022-11-01T20:51:16.141Z,33.97
2022-11-01T20:54:01.153Z,31.25
2022-11-01T20:56:46.649Z,33.42
2022-11-01T20:59:32.134Z,28.27
2022-11-01T21:02:19.324Z,32.00
2022-11-01T21:05:16.726Z,29.90
2022-11-01T21:08:08.027Z,23.73
2022-11-01T21:11:02.085Z,24.77
2022-11-01T21:13:48.243Z,25.27
2022-11-01T21:16:33.322Z,27.50
2022-11-01T21:19:23.557Z,31.63
2022-11-01T21:22:18.771Z,24.23
2022-11-01T21:25:04.331Z,29.02
2022-11-01T21:27:50.206Z,23.55
2022-11-01T21:30:35.414Z,29.40
2022-11-01T21:33:33.928Z,37.75
2022-11-01T21:36:19.189Z,32.72
2022-11-01T21:39:25.129Z,28.70
2022-11-01T21:42:33.732Z,25.20
2022-11-01T21:45:31.381Z,23.65
2022-11-01T21:48:29.722Z,22.92
2022-11-01T21:51:15.109Z,18.45
2022-11-01T21:54:04.325Z,22.33
2022-11-01T21:56:50.542Z,19.63
2022-11-01T21:59:36.761Z,18.05
2022-11-01T22:02:22.193Z,18.20
2022-11-01T22:05:07.505Z,15.70
2022-11-01T22:07:52.725Z,19.45
2022-11-01T22:10:38.227Z,17.33
2022-11-01T22:13:23.326Z,15.55
2022-11-01T22:16:08.664Z,18.55
2022-11-01T22:18:54.151Z,16.00
2022-11-01T22:21:39.931Z,23.17
2022-11-01T22:24:25.666Z,26.60
2022-11-01T22:27:11.219Z,20.90
2022-11-01T22:29:56.617Z,15.80
2022-11-01T22:32:42.446Z,18.85
2022-11-01T22:35:28.309Z,16.60
2022-11-01T22:38:25.033Z,19.23
2022-11-01T22:41:23.223Z,20.45
2022-11-01T22:44:15.014Z,15.45
2022-11-01T22:47:02.685Z,18.38
2022-11-01T22:49:53.359Z,16.10
2022-11-01T22:52:44.324Z,13.48
2022-11-01T22:55:30.912Z,14.35
2022-11-01T22:58:32.431Z,17.98
2022-11-01T23:01:27.668Z,18.80
2022-11-01T23:04:22.083Z,23.35
2022-11-01T23:07:27.058Z,21.58
2022-11-01T23:10:38.552Z,17.10
2022-11-01T23:13:52.650Z,16.83
2022-11-01T23:16:42.904Z,17.70
2022-11-01T23:19:28.401Z,17.23
2022-11-01T23:22:25.432Z,14.35
2022-11-01T23:25:13.018Z,15.55
2022-11-01T23:27:58.910Z,15.90
2022-11-01T23:30:46.834Z,14.82
2022-11-01T23:33:39.921Z,18.20
2022-11-01T23:36:36.205Z,39.42
2022-11-01T23:39:22.109Z,23.88
2022-11-01T23:42:18.550Z,14.65
2022-11-01T23:45:06.225Z,13.25
2022-11-01T23:47:51.774Z,13.70
2022-11-01T23:50:37.086Z,16.58
2022-11-01T23:53:50.796Z,10.75
2022-11-01T23:56:36.096Z,13.27
2022-11-01T23:59:21.357Z,10.25
